Terminal Aerodrome Forecast
Issued by NWS

Home | Current Version | Previous Version | Graphics & Text | Print | Product List | Glossary On
Versions: 1 2 3 4 5 6 7 8 9 10 11 12 13 14 15 16 17 18 19 20 21 22 23
000
FTUS43 KFGF 171700
TAFBJI
TAF
KBJI 171723Z 1718/1818 12008KT P6SM BKN012
      TEMPO 1718/1722 BKN009
     FM180300 11008KT P6SM BKN035
     FM180900 13005KT P6SM VCTS BKN030CB=

USA.gov is the U.S. government's official web portal to all federal, state and local government web resources and services.